Round Top, TX (78954)

8:46 PM CDT on August 29, 2016 (GMT -0500)
Schulle Road | | Change Station

Elev 449 ft 30.02 °N, 96.70 °W | Updated 21 seconds ago

Clear
Clear
76.1 °F
Feels Like 76 °F
N
2.0
Wind Variable Wind from NE
Gusts 2.5 mph

Today
High -- | Low -- °F
--% Chance of Precip.
Yesterday
High -- | Low -- °F
Precip. -- in
Pressure 30.02 in
Visibility 10.0 miles
Clouds Clear
Heat Index 76 °F
Dew Point 74 °F
Humidity 92%
Rainfall 0.24 in
Snow Depth Not available.
7:02 AM 7:52 PM
Waning Crescent, 6% visible
METAR KGYB 300135Z AUTO 04003KT 10SM CLR 24/23 A3002 RMK AO2 T02410225
Pressure 30.02 in
Visibility 10.0 miles
Clouds Clear
Heat Index 76 °F
Dew Point 74 °F
Humidity 92%
Rainfall 0.24 in
Snow Depth Not available.
7:02 AM 7:52 PM
Waning Crescent, 6% visible
METAR KGYB 300135Z AUTO 04003KT 10SM CLR 24/23 A3002 RMK AO2 T02410225

10-Day Weather Forecast

Almanac

Astronomy

Aug. 29, 2016 Rise Set
Actual Time
Civil Twilight
Nautical Twilight
Astronomical Twilight
Moon
Length of Visible Light
Length of Day
Tomorrow will be .
, % of the Moon is Illuminated

Today's Extremes

State Highs State Lows

Community

WunderPhotos

Upload Photos

1,935,715 photos uploaded!

WunderBlog® & News

Nearby

Air Quality

  Air Quality AQ Index Pollutant
Not available.

Snow Depth

Station Depth Elevation

Earthquake Activity

City Distance Mag. Time & Date
Minimum magnitude displayed is 2.5.

Coastal Water Temperatures

Place Temperature

Stations

Nearby Weather Stations

Station Location Temp. Windchill Dew Point Humidity Wind Precip. Elev Updated Type
                   

Watches & Warnings

There are currently no watches in effect.